Home   Weather   Morocco   Tangier   Past weeks
Flag for Morocco

Past Weather in Tangier, Morocco — Yesterday and Last 2 Weeks

Currently: 73 °F. Sunny. (Weather station: Tanger Aerodrome, Morocco). See more current weather

Past Weather in Tangier — Graph

°F

Tangier Temperature Yesterday

Maximum temperature yesterday: 77 °F (at 2:00 pm)
Minimum temperature yesterday: 70 °F (at 12:30 am)
Average temperature yesterday: 72 °F

High & Low Weather Summary for the Past Weeks

 TemperatureHumidityPressure
High86 °F (Jul 1, 6:00 pm)100% (Jul 1, 5:00 am)30.12 "Hg (Jul 1, 5:00 am)
Low59 °F (Jun 28, 4:30 am)31% (Jul 1, 6:00 pm)29.80 "Hg (Jul 1, 4:30 pm)
Average71 °F77%29.98 "Hg
* Reported Jun 19 4:00 pm — Jul 4 4:00 pm, Tangier. Weather by CustomWeather, © 2022

Note: Actual official high and low records may vary slightly from our data, if they occured in-between our weather recording intervals... More about our weather records

Tangier Weather History for the Previous 24 Hours

Scroll right to see more
 ConditionsComfort  
Time TempWeatherWind HumidityBarometerVisibility
4:00 pm
Mon, Jul 4
72 °FSunny.14 mph73%30.01 "Hg10 mi
3:00 pm73 °FSunny.14 mph74%30.04 "Hg10 mi
2:30 pm73 °FSunny.13 mph74%30.04 "Hg10 mi
2:00 pm73 °FSunny.14 mph69%30.04 "Hg10 mi
1:30 pm73 °FSunny.12 mph69%30.07 "Hg10 mi
1:00 pm73 °FSunny.13 mph74%30.07 "Hg10 mi
12:00 pm73 °FSunny.13 mph74%30.07 "Hg10 mi
11:30 am73 °FPassing clouds.12 mph74%30.07 "HgN/A
11:00 am73 °FSunny.12 mph74%30.07 "Hg10 mi
10:30 am73 °FPassing clouds.9 mph74%30.07 "HgN/A
10:00 am72 °FPassing clouds.7 mph78%30.07 "HgN/A
9:30 am72 °FPassing clouds.5 mph78%30.07 "HgN/A
9:00 am72 °FScattered clouds.6 mph78%30.07 "HgN/A
8:00 am70 °FScattered clouds.1 mph83%30.07 "HgN/A
7:30 am68 °FPassing clouds.1 mph88%30.07 "HgN/A
7:00 am66 °FScattered clouds.1 mph94%30.07 "HgN/A
6:00 am66 °FScattered clouds.3 mph88%30.07 "HgN/A
5:30 am66 °FScattered clouds.1 mph94%30.07 "HgN/A
5:00 am66 °FPassing clouds.2 mph94%30.07 "HgN/A
4:30 am66 °FClear.3 mph94%30.07 "Hg10 mi
4:00 am66 °FClear.1 mph94%30.07 "Hg10 mi
3:30 am66 °FPassing clouds.2 mph94%30.07 "HgN/A
3:00 am66 °FPassing clouds.2 mph94%30.07 "HgN/A
2:00 am68 °FClear.3 mph94%30.09 "Hg10 mi
12:30 am68 °FClear.3 mph94%30.09 "Hg10 mi
12:00 am68 °FClear.5 mph88%30.09 "Hg10 mi
11:30 pm
Sun, Jul 3
70 °FClear.6 mph88%30.12 "Hg10 mi
11:00 pm70 °FClear.5 mph88%30.12 "Hg10 mi
10:30 pm70 °FClear.6 mph88%30.12 "Hg10 mi
10:00 pm70 °FClear.6 mph88%30.09 "Hg10 mi
9:30 pm70 °FPassing clouds.7 mph88%30.09 "HgN/A
9:00 pm70 °FPassing clouds.9 mph88%30.09 "HgN/A
8:00 pm72 °FPassing clouds.7 mph88%30.07 "HgN/A
7:30 pm72 °FPassing clouds.7 mph88%30.07 "HgN/A
7:00 pm73 °FPassing clouds.7 mph83%30.04 "HgN/A
6:00 pm73 °FPassing clouds.9 mph83%30.04 "HgN/A
5:30 pm73 °FPassing clouds.9 mph78%30.04 "HgN/A
5:00 pm75 °FPassing clouds.10 mph74%30.07 "HgN/A
Weather by CustomWeather, © 2022

See weather overview